sensor_id;sensor_type;location;lat;lon;timestamp;pressure;altitude;pressure_sealevel;temperature;humidity
27980;BME280;15315;50.836;4.430;2023-12-22T00:07:48;100143.38;;;11.62;75.23
27980;BME280;15315;50.836;4.430;2023-12-22T00:17:49;100155.56;;;12.09;71.74
27980;BME280;15315;50.836;4.430;2023-12-22T00:27:50;100184.34;;;11.67;71.35
27980;BME280;15315;50.836;4.430;2023-12-22T00:37:51;100165.38;;;11.36;76.66
27980;BME280;15315;50.836;4.430;2023-12-22T00:47:51;100166.09;;;11.49;79.50
27980;BME280;15315;50.836;4.430;2023-12-22T00:57:51;100170.69;;;11.48;80.58
27980;BME280;15315;50.836;4.430;2023-12-22T01:07:52;100188.34;;;11.19;85.60
27980;BME280;15315;50.836;4.430;2023-12-22T01:17:52;100168.63;;;11.72;79.99
27980;BME280;15315;50.836;4.430;2023-12-22T01:27:53;100197.97;;;11.66;76.08
27980;BME280;15315;50.836;4.430;2023-12-22T01:37:54;100184.75;;;12.36;74.84
27980;BME280;15315;50.836;4.430;2023-12-22T01:47:55;100190.78;;;11.87;74.75
27980;BME280;15315;50.836;4.430;2023-12-22T01:57:56;100206.69;;;12.01;75.68
27980;BME280;15315;50.836;4.430;2023-12-22T02:07:57;100223.66;;;12.24;76.94
27980;BME280;15315;50.836;4.430;2023-12-22T02:18:23;100240.94;;;12.01;76.82
27980;BME280;15315;50.836;4.430;2023-12-22T02:28:25;100222.56;;;12.15;74.42
27980;BME280;15315;50.836;4.430;2023-12-22T02:38:25;100237.25;;;11.59;74.62
27980;BME280;15315;50.836;4.430;2023-12-22T02:48:26;100229.09;;;12.13;71.14
27980;BME280;15315;50.836;4.430;2023-12-22T02:58:26;100219.72;;;11.31;71.76
27980;BME280;15315;50.836;4.430;2023-12-22T03:08:27;100252.53;;;12.12;69.74
27980;BME280;15315;50.836;4.430;2023-12-22T03:18:27;100212.66;;;12.05;72.67
27980;BME280;15315;50.836;4.430;2023-12-22T03:28:28;100215.72;;;11.80;78.34
27980;BME280;15315;50.836;4.430;2023-12-22T03:38:28;100208.84;;;12.07;79.53
27980;BME280;15315;50.836;4.430;2023-12-22T03:48:30;100227.25;;;11.82;81.25
27980;BME280;15315;50.836;4.430;2023-12-22T03:58:30;100235.88;;;11.64;81.20
27980;BME280;15315;50.836;4.430;2023-12-22T04:08:30;100230.16;;;11.90;84.80
27980;BME280;15315;50.836;4.430;2023-12-22T04:18:31;100225.78;;;11.89;91.79
27980;BME280;15315;50.836;4.430;2023-12-22T04:28:32;100222.72;;;11.82;96.99
27980;BME280;15315;50.836;4.430;2023-12-22T04:38:32;100218.94;;;12.05;96.23
27980;BME280;15315;50.836;4.430;2023-12-22T04:48:34;100235.44;;;12.23;92.73
27980;BME280;15315;50.836;4.430;2023-12-22T04:58:34;100212.56;;;12.89;86.86
27980;BME280;15315;50.836;4.430;2023-12-22T05:08:35;100243.09;;;12.38;85.17
27980;BME280;15315;50.836;4.430;2023-12-22T05:18:35;100212.66;;;12.36;80.33
27980;BME280;15315;50.836;4.430;2023-12-22T05:28:36;100222.66;;;12.87;75.40
27980;BME280;15315;50.836;4.430;2023-12-22T05:38:38;100224.66;;;12.64;74.56
27980;BME280;15315;50.836;4.430;2023-12-22T05:48:39;100225.28;;;12.98;71.27
27980;BME280;15315;50.836;4.430;2023-12-22T05:58:40;100230.97;;;12.33;72.39
27980;BME280;15315;50.836;4.430;2023-12-22T06:08:40;100222.09;;;12.63;71.46
27980;BME280;15315;50.836;4.430;2023-12-22T06:18:41;100222.88;;;12.74;75.58
27980;BME280;15315;50.836;4.430;2023-12-22T06:28:42;100218.47;;;13.04;71.45
27980;BME280;15315;50.836;4.430;2023-12-22T06:38:42;100221.00;;;12.33;75.20
27980;BME280;15315;50.836;4.430;2023-12-22T06:48:43;100231.72;;;12.35;83.12
27980;BME280;15315;50.836;4.430;2023-12-22T06:58:44;100239.56;;;12.06;83.17
27980;BME280;15315;50.836;4.430;2023-12-22T07:19:19;100216.69;;;12.42;86.55
27980;BME280;15315;50.836;4.430;2023-12-22T07:29:20;100193.16;;;12.84;84.93
27980;BME280;15315;50.836;4.430;2023-12-22T07:39:20;100189.38;;;13.26;82.41
27980;BME280;15315;50.836;4.430;2023-12-22T07:49:21;100203.34;;;12.50;89.13
27980;BME280;15315;50.836;4.430;2023-12-22T07:59:22;100206.59;;;12.65;92.32
27980;BME280;15315;50.836;4.430;2023-12-22T08:09:22;100201.16;;;12.55;92.05
27980;BME280;15315;50.836;4.430;2023-12-22T08:19:23;100212.00;;;11.38;100.00
27980;BME280;15315;50.836;4.430;2023-12-22T08:29:25;100217.41;;;12.44;100.00
27980;BME280;15315;50.836;4.430;2023-12-22T08:39:26;100248.38;;;11.77;100.00
27980;BME280;15315;50.836;4.430;2023-12-22T08:49:26;100245.72;;;12.61;100.00
27980;BME280;15315;50.836;4.430;2023-12-22T08:59:27;100252.78;;;12.41;100.00
27980;BME280;15315;50.836;4.430;2023-12-22T09:09:27;100250.25;;;11.54;100.00
27980;BME280;15315;50.836;4.430;2023-12-22T09:19:27;100224.38;;;12.88;100.00
27980;BME280;15315;50.836;4.430;2023-12-22T09:29:29;100211.09;;;12.55;100.00
27980;BME280;15315;50.836;4.430;2023-12-22T09:39:30;100229.03;;;11.60;100.00
27980;BME280;15315;50.836;4.430;2023-12-22T09:49:33;100225.59;;;12.54;100.00
27980;BME280;15315;50.836;4.430;2023-12-22T09:59:34;100230.78;;;12.25;100.00
27980;BME280;15315;50.836;4.430;2023-12-22T10:09:36;100258.94;;;12.22;100.00
27980;BME280;15315;50.836;4.430;2023-12-22T10:19:38;100254.25;;;11.82;100.00
27980;BME280;15315;50.836;4.430;2023-12-22T10:29:39;100255.38;;;12.43;100.00
27980;BME280;15315;50.836;4.430;2023-12-22T10:39:42;100259.53;;;12.15;100.00
27980;BME280;15315;50.836;4.430;2023-12-22T10:49:45;100340.59;;;12.26;100.00
27980;BME280;15315;50.836;4.430;2023-12-22T10:59:47;100339.81;;;11.92;100.00
27980;BME280;15315;50.836;4.430;2023-12-22T11:09:49;100294.25;;;11.99;100.00
27980;BME280;15315;50.836;4.430;2023-12-22T11:19:53;100282.88;;;12.16;100.00
27980;BME280;15315;50.836;4.430;2023-12-22T11:29:55;100270.09;;;12.18;100.00
27980;BME280;15315;50.836;4.430;2023-12-22T11:39:56;100245.22;;;12.35;100.00
27980;BME280;15315;50.836;4.430;2023-12-22T11:49:57;100241.78;;;11.69;100.00
27980;BME280;15315;50.836;4.430;2023-12-22T12:00:00;100219.03;;;12.35;100.00
27980;BME280;15315;50.836;4.430;2023-12-22T12:10:01;100218.25;;;12.24;100.00
27980;BME280;15315;50.836;4.430;2023-12-22T12:20:02;100226.09;;;11.95;100.00
27980;BME280;15315;50.836;4.430;2023-12-22T12:30:15;100222.56;;;12.15;100.00
27980;BME280;15315;50.836;4.430;2023-12-22T12:40:19;100204.38;;;12.38;100.00
27980;BME280;15315;50.836;4.430;2023-12-22T12:50:22;100202.91;;;12.66;100.00
27980;BME280;15315;50.836;4.430;2023-12-22T13:10:30;100233.81;;;12.31;100.00
27980;BME280;15315;50.836;4.430;2023-12-22T13:20:32;100214.47;;;12.15;100.00
27980;BME280;15315;50.836;4.430;2023-12-22T13:30:37;100221.84;;;11.82;100.00
27980;BME280;15315;50.836;4.430;2023-12-22T13:40:44;100226.03;;;11.86;100.00
27980;BME280;15315;50.836;4.430;2023-12-22T13:50:57;100228.44;;;12.20;100.00
27980;BME280;15315;50.836;4.430;2023-12-22T14:00:58;100223.28;;;12.17;100.00
27980;BME280;15315;50.836;4.430;2023-12-22T14:10:59;100687.63;;;12.23;100.00
27980;BME280;15315;50.836;4.430;2023-12-22T14:20:59;100282.91;;;12.05;100.00
27980;BME280;15315;50.836;4.430;2023-12-22T14:31:00;100272.28;;;12.76;100.00
27980;BME280;15315;50.836;4.430;2023-12-22T14:41:01;100278.03;;;12.83;100.00
27980;BME280;15315;50.836;4.430;2023-12-22T14:51:02;100291.00;;;12.16;100.00
27980;BME280;15315;50.836;4.430;2023-12-22T15:01:03;100300.28;;;12.23;99.49
27980;BME280;15315;50.836;4.430;2023-12-22T15:11:03;100282.19;;;12.34;94.68
27980;BME280;15315;50.836;4.430;2023-12-22T15:21:04;100296.97;;;12.62;91.29
27980;BME280;15315;50.836;4.430;2023-12-22T15:31:07;100314.50;;;13.60;85.17
27980;BME280;15315;50.836;4.430;2023-12-22T15:41:08;100314.72;;;12.76;85.50
27980;BME280;15315;50.836;4.430;2023-12-22T15:51:10;100336.47;;;13.67;82.12
27980;BME280;15315;50.836;4.430;2023-12-22T16:01:11;100355.81;;;12.70;82.73
27980;BME280;15315;50.836;4.430;2023-12-22T16:11:14;100368.63;;;13.09;81.38
27980;BME280;15315;50.836;4.430;2023-12-22T16:21:14;100366.88;;;12.67;82.56
27980;BME280;15315;50.836;4.430;2023-12-22T16:31:16;100366.72;;;13.21;79.72
27980;BME280;15315;50.836;4.430;2023-12-22T16:41:16;100389.44;;;13.29;78.20
27980;BME280;15315;50.836;4.430;2023-12-22T16:51:17;100393.75;;;13.41;82.34
27980;BME280;15315;50.836;4.430;2023-12-22T17:01:17;100424.22;;;12.61;96.42
27980;BME280;15315;50.836;4.430;2023-12-22T17:11:17;100427.63;;;12.63;94.08
27980;BME280;15315;50.836;4.430;2023-12-22T17:21:18;100422.41;;;13.03;89.57
27980;BME280;15315;50.836;4.430;2023-12-22T17:31:18;100423.09;;;13.36;85.53
27980;BME280;15315;50.836;4.430;2023-12-22T17:41:18;100436.50;;;13.58;80.43
27980;BME280;15315;50.836;4.430;2023-12-22T17:51:19;100437.84;;;12.91;81.12
27980;BME280;15315;50.836;4.430;2023-12-22T18:01:19;100448.59;;;13.34;78.82
27980;BME280;15315;50.836;4.430;2023-12-22T18:11:20;100455.53;;;13.47;79.03
27980;BME280;15315;50.836;4.430;2023-12-22T18:21:20;100463.84;;;13.55;76.11
27980;BME280;15315;50.836;4.430;2023-12-22T18:31:22;100460.72;;;13.19;77.71
27980;BME280;15315;50.836;4.430;2023-12-22T18:41:22;100480.72;;;13.27;76.30
27980;BME280;15315;50.836;4.430;2023-12-22T18:51:23;100468.19;;;13.88;75.44
27980;BME280;15315;50.836;4.430;2023-12-22T19:01:23;100500.44;;;12.86;76.18
27980;BME280;15315;50.836;4.430;2023-12-22T19:11:24;100535.34;;;13.32;74.77
27980;BME280;15315;50.836;4.430;2023-12-22T19:21:24;100544.25;;;12.80;76.67
27980;BME280;15315;50.836;4.430;2023-12-22T19:31:25;100536.25;;;13.95;75.11
27980;BME280;15315;50.836;4.430;2023-12-22T19:41:28;100561.94;;;13.27;75.34
27980;BME280;15315;50.836;4.430;2023-12-22T19:51:30;100563.91;;;12.82;77.18
27980;BME280;15315;50.836;4.430;2023-12-22T20:01:30;100575.25;;;13.51;73.53
27980;BME280;15315;50.836;4.430;2023-12-22T20:11:31;100578.81;;;14.04;71.54
27980;BME280;15315;50.836;4.430;2023-12-22T20:21:31;100594.72;;;13.56;71.21
27980;BME280;15315;50.836;4.430;2023-12-22T20:31:31;100608.66;;;13.83;73.28
27980;BME280;15315;50.836;4.430;2023-12-22T20:41:34;100627.59;;;13.09;73.18
27980;BME280;15315;50.836;4.430;2023-12-22T20:51:40;100647.41;;;13.09;72.56
27980;BME280;15315;50.836;4.430;2023-12-22T21:01:44;100653.00;;;13.28;73.32
27980;BME280;15315;50.836;4.430;2023-12-22T21:11:45;100668.31;;;12.85;75.60
27980;BME280;15315;50.836;4.430;2023-12-22T21:21:46;100657.69;;;13.26;74.51
27980;BME280;15315;50.836;4.430;2023-12-22T21:31:46;100666.34;;;13.09;72.85
27980;BME280;15315;50.836;4.430;2023-12-22T21:41:50;100677.19;;;13.09;73.76
27980;BME280;15315;50.836;4.430;2023-12-22T21:51:52;100686.38;;;13.83;71.71
27980;BME280;15315;50.836;4.430;2023-12-22T22:01:52;100694.81;;;13.35;73.54
27980;BME280;15315;50.836;4.430;2023-12-22T22:11:53;100704.44;;;13.17;73.83
27980;BME280;15315;50.836;4.430;2023-12-22T22:21:53;100705.31;;;13.18;75.36
27980;BME280;15315;50.836;4.430;2023-12-22T22:31:54;100699.41;;;13.35;72.46
27980;BME280;15315;50.836;4.430;2023-12-22T22:41:55;100726.38;;;13.14;75.44
27980;BME280;15315;50.836;4.430;2023-12-22T22:51:56;100731.75;;;13.47;74.36
27980;BME280;15315;50.836;4.430;2023-12-22T23:01:57;100749.59;;;13.28;75.78
27980;BME280;15315;50.836;4.430;2023-12-22T23:11:57;100765.13;;;13.15;76.14
27980;BME280;15315;50.836;4.430;2023-12-22T23:21:57;100769.06;;;13.11;76.81
27980;BME280;15315;50.836;4.430;2023-12-22T23:31:58;100771.50;;;13.25;76.06
27980;BME280;15315;50.836;4.430;2023-12-22T23:41:58;100791.47;;;13.02;75.45
27980;BME280;15315;50.836;4.430;2023-12-22T23:51:59;100779.88;;;13.44;74.72
